Time;durP1;ratioP1;P1;durP2;ratioP2;P2;SDS_P1;SDS_P2;PMS_P1;PMS_P2;Temp;Humidity;BMP_temperature;BMP_pressure;BME280_temperature;BME280_humidity;BME280_pressure;Samples;Min_cycle;Max_cycle;Signal;HPM_P1;HPM_P2
2023/04/06 00:02:11;;;;;;;26.90;24.20;;;;;;;-1.93;60.94;98210.21;109675;1289;23050;-80
2023/04/06 00:04:40;;;;;;;31.20;26.40;;;;;;;-1.98;60.85;98212.07;109672;1289;22233;-80
2023/04/06 00:07:08;;;;;;;28.90;26.10;;;;;;;-2.04;60.85;98210.95;109674;1289;22884;-82
2023/04/06 00:09:36;;;;;;;30.10;27.10;;;;;;;-2.09;61.00;98207.64;109670;1289;22971;-81
2023/04/06 00:12:04;;;;;;;31.10;28.00;;;;;;;-2.14;61.11;98207.66;109668;1289;22337;-81
2023/04/06 00:14:32;;;;;;;33.90;30.50;;;;;;;-2.19;61.43;98204.76;109669;1289;22223;-81
2023/04/06 00:17:00;;;;;;;31.10;27.90;;;;;;;-2.23;61.33;98209.16;109502;1289;203792;-82
2023/04/06 00:19:28;;;;;;;30.40;27.30;;;;;;;-2.26;61.25;98205.19;109668;1289;22221;-82
2023/04/06 00:21:56;;;;;;;29.50;26.50;;;;;;;-2.23;61.32;98203.96;109657;1289;22230;-82
2023/04/06 00:24:25;;;;;;;26.80;24.20;;;;;;;-2.18;61.47;98200.25;109662;1277;23103;-81
2023/04/06 00:26:53;;;;;;;27.60;24.60;;;;;;;-2.15;61.55;98200.34;109669;1289;22146;-82
2023/04/06 00:29:21;;;;;;;27.20;24.70;;;;;;;-2.13;61.89;98200.19;109646;1289;22262;-81
2023/04/06 00:31:49;;;;;;;28.00;24.60;;;;;;;-2.10;61.98;98199.92;109657;1289;22174;-81
2023/04/06 00:34:17;;;;;;;27.40;24.70;;;;;;;-2.09;62.11;98201.48;109667;1289;22288;-82
2023/04/06 00:36:45;;;;;;;28.80;25.80;;;;;;;-2.11;62.01;98200.02;109657;1289;22156;-82
2023/04/06 00:39:13;;;;;;;28.00;25.20;;;;;;;-2.14;62.49;98200.06;109662;1289;22237;-82
2023/04/06 00:41:46;;;;;;;25.60;23.10;;;;;;;-2.18;62.43;98201.95;109538;1289;22187;-82
2023/04/06 00:44:14;;;;;;;28.50;25.50;;;;;;;-2.23;62.01;98197.91;109564;1289;22230;-82
2023/04/06 00:46:42;;;;;;;29.60;24.90;;;;;;;-2.29;62.38;98188.02;109681;1289;22174;-82
2023/04/06 00:49:11;;;;;;;25.40;23.00;;;;;;;-2.25;62.65;98190.73;109650;1289;22240;-81
2023/04/06 00:51:39;;;;;;;26.70;24.00;;;;;;;-2.29;62.65;98187.14;109656;1289;22294;-81
2023/04/06 00:54:07;;;;;;;25.30;22.70;;;;;;;-2.36;62.57;98187.84;109669;1289;22707;-82
2023/04/06 00:56:35;;;;;;;23.60;21.30;;;;;;;-2.40;62.70;98189.68;109666;1289;22112;-82
2023/04/06 00:59:03;;;;;;;22.20;19.90;;;;;;;-2.43;63.71;98187.95;109646;1289;22321;-80
2023/04/06 01:01:32;;;;;;;24.00;21.50;;;;;;;-2.44;63.49;98187.19;109563;1289;22214;-81
2023/04/06 01:04:04;;;;;;;24.20;21.20;;;;;;;-2.42;63.57;98186.73;109670;1289;22163;-82
2023/04/06 01:06:36;;;;;;;22.10;19.90;;;;;;;-2.38;63.74;98188.78;109662;1289;22222;-81
2023/04/06 01:09:04;;;;;;;21.80;19.50;;;;;;;-2.30;63.56;98188.14;109660;1289;22238;-80
2023/04/06 01:11:33;;;;;;;20.60;18.50;;;;;;;-2.27;63.49;98186.51;109657;1289;22941;-81
2023/04/06 01:14:03;;;;;;;19.70;17.70;;;;;;;-2.29;63.58;98185.66;109683;1289;22289;-83
2023/04/06 01:16:54;;;;;;;21.60;19.50;;;;;;;-2.35;63.53;98188.30;109694;1289;22110;-80
2023/04/06 01:19:28;;;;;;;18.50;16.60;;;;;;;-2.40;63.84;98188.55;109668;1289;22186;-81
2023/04/06 01:21:56;;;;;;;19.20;17.20;;;;;;;-2.45;63.80;98191.25;109694;1289;22312;-80
2023/04/06 01:24:30;;;;;;;18.90;17.10;;;;;;;-2.51;63.50;98191.38;109694;1289;22255;-80
2023/04/06 01:27:16;;;;;;;18.00;16.40;;;;;;;-2.59;63.86;98190.06;109679;1289;22164;-80
2023/04/06 01:30:00;;;;;;;21.50;19.40;;;;;;;-2.67;63.76;98185.54;109678;1289;22969;-89
2023/04/06 01:32:42;;;;;;;21.30;19.10;;;;;;;-2.72;63.77;98184.55;109592;1289;23051;-83
2023/04/06 01:35:12;;;;;;;22.30;19.90;;;;;;;-2.78;63.92;98185.15;109683;1289;22380;-83
2023/04/06 01:37:45;;;;;;;19.80;17.80;;;;;;;-2.79;64.19;98184.35;109687;1289;22253;-84
2023/04/06 01:40:16;;;;;;;20.80;18.80;;;;;;;-2.75;63.95;98182.71;109686;1289;22287;-85
2023/04/06 01:42:48;;;;;;;18.70;17.00;;;;;;;-2.70;64.58;98180.99;109668;1289;22170;-86
2023/04/06 01:45:22;;;;;;;21.00;18.20;;;;;;;-2.68;64.82;98178.16;109683;1289;22236;-85
2023/04/06 01:47:51;;;;;;;21.60;19.50;;;;;;;-2.67;64.49;98177.83;109675;1289;22257;-85
2023/04/06 01:50:22;;;;;;;19.90;17.90;;;;;;;-2.67;64.40;98176.94;109676;1289;22283;-84
2023/04/06 01:52:50;;;;;;;19.10;16.90;;;;;;;-2.70;64.41;98172.55;109700;1289;22298;-85
2023/04/06 01:55:19;;;;;;;20.10;17.90;;;;;;;-2.76;64.18;98172.21;109662;1289;22248;-83
2023/04/06 01:58:10;;;;;;;20.90;18.80;;;;;;;-2.80;64.41;98168.00;109670;1289;22351;-85
2023/04/06 02:00:38;;;;;;;24.40;22.00;;;;;;;-2.84;64.48;98173.33;109544;1289;22202;-83
2023/04/06 02:03:07;;;;;;;22.80;20.60;;;;;;;-2.88;64.74;98168.05;109567;1289;23034;-83
2023/04/06 02:05:37;;;;;;;21.80;19.60;;;;;;;-2.91;64.78;98170.48;109581;1289;22210;-82
2023/04/06 02:08:15;;;;;;;20.40;18.30;;;;;;;-2.93;64.53;98166.23;109659;1289;22241;-83
2023/04/06 02:10:43;;;;;;;26.10;23.40;;;;;;;-2.94;64.50;98165.55;109691;1289;22834;-82
2023/04/06 02:13:18;;;;;;;;;;;;;;;-2.92;64.44;98165.17;109592;1289;22436;-82
2023/04/06 02:15:48;;;;;;;29.40;26.60;;;;;;;-2.89;64.49;98168.30;109664;1289;22283;-82
2023/04/06 02:18:18;;;;;;;24.60;21.80;;;;;;;-2.83;64.88;98166.98;109659;1289;22300;-83
2023/04/06 02:20:46;;;;;;;22.20;20.20;;;;;;;-2.83;65.91;98167.97;109656;1289;22120;-83
2023/04/06 02:23:14;;;;;;;21.20;19.20;;;;;;;-2.86;65.41;98164.92;109674;1289;23040;-82
2023/04/06 02:25:42;;;;;;;24.50;22.00;;;;;;;-2.88;65.51;98161.36;109663;1289;22200;-82
2023/04/06 02:28:10;;;;;;;27.50;23.70;;;;;;;-2.91;65.40;98161.32;109686;1289;22199;-82
2023/04/06 02:30:38;;;;;;;25.70;22.40;;;;;;;-2.93;65.83;98160.44;109662;1289;22205;-82
2023/04/06 02:33:06;;;;;;;29.80;26.80;;;;;;;-3.00;66.61;98159.64;109671;1289;23563;-82
2023/04/06 02:35:41;;;;;;;33.50;30.10;;;;;;;-3.11;66.82;98160.62;109656;1289;22938;-82
2023/04/06 02:38:09;;;;;;;32.40;27.00;;;;;;;-3.18;66.94;98163.26;109660;1289;22846;-82
2023/04/06 02:40:37;;;;;;;30.30;27.20;;;;;;;-3.21;66.57;98167.56;109684;1289;22333;-81
2023/04/06 02:43:16;;;;;;;28.50;25.40;;;;;;;-3.19;66.53;98165.61;109693;1289;22135;-82
2023/04/06 02:45:45;;;;;;;30.60;25.80;;;;;;;-3.17;67.34;98165.57;109578;1289;22920;-83
2023/04/06 02:48:14;;;;;;;29.80;26.50;;;;;;;-3.21;68.32;98165.70;109690;1289;23068;-82
2023/04/06 02:50:42;;;;;;;34.40;30.80;;;;;;;-3.26;67.94;98173.77;109656;1289;22279;-82
2023/04/06 02:53:10;;;;;;;33.00;29.70;;;;;;;-3.28;67.26;98177.36;109663;1289;22129;-83
2023/04/06 02:55:39;;;;;;;30.30;27.20;;;;;;;-3.30;67.30;98175.84;109658;1289;22117;-84
2023/04/06 02:58:07;;;;;;;31.70;26.90;;;;;;;-3.33;67.44;98177.66;109693;1274;22287;-85
2023/04/06 03:00:44;;;;;;;37.70;32.10;;;;;;;-3.40;67.63;98181.55;109680;1289;22191;-92
2023/04/06 03:03:12;;;;;;;33.00;28.10;;;;;;;-3.46;68.38;98181.98;109708;1289;22232;-89
2023/04/06 03:05:41;;;;;;;32.00;26.90;;;;;;;-3.50;69.42;98178.17;109583;1289;22163;-92
2023/04/06 03:08:10;;;;;;;31.90;27.30;;;;;;;-3.51;70.35;98175.62;109551;1289;23007;-92
2023/04/06 03:10:43;;;;;;;36.40;29.30;;;;;;;-3.54;71.22;98175.59;109534;1289;22251;-92
2023/04/06 03:13:11;;;;;;;37.40;30.70;;;;;;;-3.61;71.63;98176.75;109682;1289;22645;-89
2023/04/06 03:16:05;;;;;;;40.40;32.40;;;;;;;-3.65;71.40;98175.77;109631;1289;22283;-87
2023/04/06 03:18:35;;;;;;;31.20;27.70;;;;;;;-3.64;71.50;98174.59;109575;1289;22993;-87
2023/04/06 03:21:03;;;;;;;31.30;27.70;;;;;;;-3.61;71.31;98177.52;109668;1289;22959;-88
2023/04/06 03:23:42;;;;;;;30.50;27.30;;;;;;;-3.56;71.35;98181.26;109661;1289;22194;-86
2023/04/06 03:26:10;;;;;;;33.80;29.80;;;;;;;-3.49;71.95;98185.23;109679;1289;22166;-87
2023/04/06 03:28:38;;;;;;;34.20;30.10;;;;;;;-3.46;71.84;98186.93;109669;1289;23071;-89
2023/04/06 03:31:06;;;;;;;31.80;28.50;;;;;;;-3.48;71.72;98188.38;109567;1289;23569;-85
2023/04/06 03:33:40;;;;;;;30.60;27.50;;;;;;;-3.52;71.87;98187.33;109688;1289;22013;-88
2023/04/06 03:36:09;;;;;;;31.70;28.10;;;;;;;-3.57;72.04;98186.89;109668;1289;22338;-87
2023/04/06 03:38:40;;;;;;;32.50;29.10;;;;;;;-3.65;72.02;98187.45;109743;1289;22266;-86
2023/04/06 03:41:13;;;;;;;35.80;29.60;;;;;;;-3.70;72.69;98184.96;109872;1289;22229;-84
2023/04/06 03:43:45;;;;;;;33.40;29.70;;;;;;;-3.73;72.35;98182.77;109873;1289;22209;-85
2023/04/06 03:46:13;;;;;;;44.10;32.60;;;;;;;-3.73;72.61;98181.80;109884;1289;22209;-87
2023/04/06 03:48:41;;;;;;;34.50;30.80;;;;;;;-3.72;72.21;98183.49;109885;1289;22060;-85
2023/04/06 03:51:11;;;;;;;39.80;35.60;;;;;;;-3.73;72.26;98186.73;109749;1289;22247;-87
2023/04/06 03:53:39;;;;;;;46.20;41.50;;;;;;;-3.73;72.80;98188.92;109821;1289;22182;-87
2023/04/06 03:56:07;;;;;;;50.20;45.20;;;;;;;-3.78;72.02;98190.16;109795;1289;22184;-85
2023/04/06 03:58:40;;;;;;;50.20;43.10;;;;;;;-3.76;71.64;98193.49;109833;1289;22172;-90
2023/04/06 04:01:08;;;;;;;47.60;42.60;;;;;;;-3.76;71.30;98192.73;109649;1289;22871;-85
2023/04/06 04:03:36;;;;;;;53.00;47.30;;;;;;;-3.77;71.00;98189.98;109682;1289;22312;-85
2023/04/06 04:06:04;;;;;;;51.40;46.00;;;;;;;-3.82;71.65;98188.98;109561;1289;22164;-87
2023/04/06 04:08:32;;;;;;;43.70;39.10;;;;;;;-3.90;72.82;98186.29;109578;1289;22210;-84
2023/04/06 04:11:01;;;;;;;39.50;35.50;;;;;;;-3.95;74.00;98191.70;109643;1289;22334;-84
2023/04/06 04:13:29;;;;;;;38.80;35.20;;;;;;;-4.00;73.95;98189.02;109573;1289;22204;-85
2023/04/06 04:15:58;;;;;;;38.00;34.20;;;;;;;-4.06;73.82;98186.84;109670;1289;22301;-86
2023/04/06 04:18:26;;;;;;;43.50;39.00;;;;;;;-4.12;73.79;98187.96;109650;1289;22218;-83
2023/04/06 04:20:54;;;;;;;42.00;37.60;;;;;;;-4.17;74.34;98189.40;109662;1289;22256;-84
2023/04/06 04:23:23;;;;;;;41.90;36.40;;;;;;;-4.18;75.04;98189.52;109664;1289;22259;-86
2023/04/06 04:25:51;;;;;;;38.70;34.40;;;;;;;-4.16;74.58;98191.84;109680;1289;22388;-86
2023/04/06 04:28:19;;;;;;;37.60;33.60;;;;;;;-4.12;73.89;98190.88;109609;1289;22205;-88
2023/04/06 04:30:47;;;;;;;37.20;33.40;;;;;;;-4.05;73.43;98195.80;109689;1289;22978;-90
2023/04/06 04:33:16;;;;;;;56.10;51.00;;;;;;;-3.97;73.06;98194.29;109599;1289;22201;-86
2023/04/06 04:35:44;;;;;;;39.50;35.80;;;;;;;-3.92;72.82;98190.83;109697;1289;22186;-89
2023/04/06 04:38:15;;;;;;;47.20;37.20;;;;;;;-3.91;73.61;98190.27;109607;1289;23048;-89
2023/04/06 04:40:44;;;;;;;40.60;36.30;;;;;;;-3.93;74.68;98187.38;109675;1289;22268;-90
2023/04/06 04:43:12;;;;;;;45.40;40.60;;;;;;;-3.92;75.01;98185.33;109705;1289;22389;-85
2023/04/06 04:45:40;;;;;;;47.30;42.40;;;;;;;-3.85;75.41;98183.66;109723;1289;22188;-81
2023/04/06 04:48:16;;;;;;;52.70;47.20;;;;;;;-3.81;75.47;98186.72;109535;1289;22134;-85
2023/04/06 04:50:55;;;;;;;58.80;49.70;;;;;;;-3.76;75.21;98183.97;109669;1289;22183;-86
2023/04/06 04:53:24;;;;;;;52.20;46.70;;;;;;;-3.71;75.27;98182.77;109750;1289;22139;-86
2023/04/06 04:55:55;;;;;;;43.80;39.20;;;;;;;-3.67;75.38;98181.44;109560;1289;22272;-86
2023/04/06 04:58:23;;;;;;;38.80;34.80;;;;;;;-3.58;75.64;98180.52;109706;1289;22253;-86
2023/04/06 05:00:55;;;;;;;37.30;33.30;;;;;;;-3.46;75.92;98183.44;109639;1289;22374;-85
2023/04/06 05:03:26;;;;;;;38.60;33.90;;;;;;;-3.36;75.98;98183.38;109708;1289;23106;-89
2023/04/06 05:05:58;;;;;;;36.50;33.10;;;;;;;-3.27;75.98;98183.52;109674;1289;22916;-87
2023/04/06 05:08:29;;;;;;;39.00;35.00;;;;;;;-3.20;75.82;98182.86;109743;1289;21905;-87
2023/04/06 05:10:58;;;;;;;36.30;32.50;;;;;;;-3.12;75.66;98182.52;109693;1289;22189;-87
2023/04/06 05:13:29;;;;;;;32.40;28.90;;;;;;;-3.05;75.94;98180.48;109693;1289;22214;-88
2023/04/06 05:15:58;;;;;;;31.90;28.60;;;;;;;-2.96;76.08;98180.81;109649;1289;22990;-89
2023/04/06 05:18:31;;;;;;;30.80;27.90;;;;;;;-2.87;75.72;98184.77;109744;1278;22182;-93
2023/04/06 05:20:59;;;;;;;29.10;26.20;;;;;;;-2.80;75.49;98179.35;109810;1289;22291;-92
2023/04/06 05:23:40;;;;;;;32.50;29.10;;;;;;;-2.72;75.36;98183.28;109790;1289;22126;-92
2023/04/06 05:26:08;;;;;;;33.80;30.40;;;;;;;-2.65;75.13;98186.35;109798;1289;22222;-90
2023/04/06 05:28:37;;;;;;;29.80;26.70;;;;;;;-2.58;75.08;98183.00;109767;1289;22314;-91
2023/04/06 05:31:06;;;;;;;28.40;25.60;;;;;;;-2.50;75.13;98180.50;109827;1286;22211;-88
2023/04/06 05:34:09;;;;;;;28.10;25.20;;;;;;;-2.37;74.75;98173.65;109741;1260;22226;-86
2023/04/06 05:36:40;;;;;;;28.90;25.80;;;;;;;-2.24;74.81;98171.64;109873;1284;22827;-87
2023/04/06 05:39:16;;;;;;;27.80;25.10;;;;;;;-2.13;74.63;98170.66;109725;1288;23552;-82
2023/04/06 05:41:49;;;;;;;26.10;23.30;;;;;;;-2.02;74.49;98171.83;109737;1287;22236;-92
2023/04/06 05:44:24;;;;;;;26.70;24.00;;;;;;;-1.95;73.98;98170.08;109826;1262;22397;-92
2023/04/06 05:47:02;;;;;;;24.80;22.30;;;;;;;-1.89;73.42;98174.52;109706;1290;22159;-91
2023/04/06 05:49:36;;;;;;;26.00;23.30;;;;;;;-1.81;73.23;98167.07;109752;1280;22895;-91
2023/04/06 05:52:08;;;;;;;24.20;21.80;;;;;;;-1.68;73.20;98167.65;109684;1290;22203;-90
2023/04/06 05:54:37;;;;;;;24.00;21.80;;;;;;;-1.55;73.27;98169.30;109645;1290;22204;-90
2023/04/06 05:57:05;;;;;;;24.60;22.00;;;;;;;-1.44;72.66;98165.61;109712;1290;22210;-93
2023/04/06 05:59:33;;;;;;;24.70;22.20;;;;;;;-1.29;72.81;98170.74;109790;1264;22681;-91
2023/04/06 06:02:02;;;;;;;22.90;20.50;;;;;;;-1.08;72.88;98167.56;109839;1288;22162;-90
2023/04/06 06:04:33;;;;;;;24.20;21.70;;;;;;;-0.91;72.42;98163.30;109755;1288;22205;-92
2023/04/06 06:07:03;;;;;;;28.10;23.10;;;;;;;-0.82;72.12;98163.30;109678;1289;23109;-91
2023/04/06 06:09:37;;;;;;;22.80;20.00;;;;;;;-0.65;71.79;98167.24;109792;1288;22109;-89
2023/04/06 06:12:16;;;;;;;25.20;22.40;;;;;;;-0.50;71.75;98166.91;109720;1264;22360;-90
2023/04/06 06:14:44;;;;;;;22.80;20.10;;;;;;;-0.32;71.52;98165.86;109746;1289;22198;-91
2023/04/06 06:17:15;;;;;;;21.80;19.50;;;;;;;-0.20;70.97;98169.80;109749;1289;23100;-91
2023/04/06 06:19:45;;;;;;;21.40;19.30;;;;;;;-0.07;70.96;98167.13;109684;1287;22129;-92
2023/04/06 06:22:13;;;;;;;17.90;16.20;;;;;;;0.11;70.89;98164.54;109689;1289;22398;-91
2023/04/06 06:24:44;;;;;;;18.10;15.20;;;;;;;0.27;70.02;98162.58;109769;1289;22357;-92
2023/04/06 06:27:13;;;;;;;15.00;13.40;;;;;;;0.38;69.75;98161.75;109831;1289;22279;-92
2023/04/06 06:29:42;;;;;;;14.50;13.00;;;;;;;0.51;69.35;98163.81;109816;1289;22216;-90
2023/04/06 06:32:10;;;;;;;16.20;13.60;;;;;;;0.53;66.04;98168.54;109789;1287;22239;-90
2023/04/06 06:34:39;;;;;;;14.70;13.20;;;;;;;0.43;65.16;98168.98;109741;1266;23686;-93
2023/04/06 06:37:09;;;;;;;14.30;12.70;;;;;;;0.42;65.28;98170.70;109766;1286;22214;-91
2023/04/06 06:39:38;;;;;;;15.30;13.80;;;;;;;0.42;64.44;98164.67;109731;1273;22213;-91
2023/04/06 06:42:06;;;;;;;13.70;12.20;;;;;;;0.37;62.81;98169.92;109758;1289;22929;-93
2023/04/06 06:44:51;;;;;;;19.40;17.50;;;;;;;0.32;62.03;98173.58;109591;1289;22194;-91
2023/04/06 06:47:21;;;;;;;16.50;14.80;;;;;;;0.28;63.62;98173.19;109722;1289;22235;-91
2023/04/06 06:49:49;;;;;;;14.60;13.20;;;;;;;0.44;63.87;98171.82;109813;1289;22222;-90
2023/04/06 06:52:18;;;;;;;14.90;13.40;;;;;;;0.57;63.69;98174.85;109786;1289;22205;-93
2023/04/06 06:54:46;;;;;;;14.90;13.30;;;;;;;0.71;62.46;98179.41;109766;1289;22181;-91
2023/04/06 06:57:15;;;;;;;17.20;14.60;;;;;;;0.62;61.20;98178.47;109840;1274;22196;-93
2023/04/06 06:59:43;;;;;;;16.40;14.80;;;;;;;0.61;61.41;98176.80;109749;1289;22260;-92
2023/04/06 07:02:13;;;;;;;14.40;12.90;;;;;;;0.46;61.14;98149.81;109712;1289;22193;-91
2023/04/06 07:04:41;;;;;;;29.00;14.40;;;;;;;0.67;61.07;98173.56;109636;1289;22109;-90
2023/04/06 07:07:10;;;;;;;14.00;12.60;;;;;;;0.69;61.25;98173.13;109805;1289;22219;-91
2023/04/06 07:09:43;;;;;;;14.10;12.80;;;;;;;0.76;60.78;98180.39;109672;1289;22734;-91
2023/04/06 07:12:11;;;;;;;13.80;12.40;;;;;;;0.75;60.44;98174.81;109754;1289;22662;-90
2023/04/06 07:14:40;;;;;;;14.90;13.40;;;;;;;0.81;60.88;98167.52;109642;1289;22195;-92
2023/04/06 07:17:10;;;;;;;13.60;12.10;;;;;;;0.91;60.04;98173.13;109757;1289;22204;-91
2023/04/06 07:19:39;;;;;;;13.20;11.90;;;;;;;0.95;59.96;98174.70;109677;1289;22269;-91
2023/04/06 07:22:07;;;;;;;17.20;12.20;;;;;;;0.92;59.44;98177.01;109755;1289;23066;-91
2023/04/06 07:24:35;;;;;;;13.10;11.80;;;;;;;0.79;58.81;98178.17;109666;1289;22131;-92
2023/04/06 07:27:03;;;;;;;13.40;11.90;;;;;;;0.67;59.04;98182.14;109674;1289;22236;-88
2023/04/06 07:29:31;;;;;;;14.20;12.70;;;;;;;0.63;59.21;98181.58;109731;1289;22876;-89
2023/04/06 07:32:00;;;;;;;13.20;11.80;;;;;;;0.63;59.48;98185.13;109595;1289;22219;-92
2023/04/06 07:34:29;;;;;;;13.20;11.70;;;;;;;0.63;59.62;98183.42;109684;1289;22395;-95
2023/04/06 07:36:58;;;;;;;14.80;13.30;;;;;;;0.57;58.54;98181.34;109804;1289;22303;-90
2023/04/06 07:39:28;;;;;;;14.20;12.70;;;;;;;0.46;59.06;98180.08;109687;1271;23003;-90
2023/04/06 07:41:56;;;;;;;16.00;12.80;;;;;;;0.40;58.77;98181.42;109715;1289;22129;-90
2023/04/06 07:44:25;;;;;;;14.90;13.30;;;;;;;0.33;59.22;98181.44;109722;1289;22146;-91
2023/04/06 07:46:53;;;;;;;15.90;14.20;;;;;;;0.34;59.61;98176.20;109636;1287;22761;-91
2023/04/06 07:49:22;;;;;;;14.00;12.70;;;;;;;0.37;59.45;98179.84;109614;1289;22871;-90
2023/04/06 07:51:50;;;;;;;13.40;12.10;;;;;;;0.35;58.87;98181.77;109697;1289;22218;-93
2023/04/06 07:54:19;;;;;;;13.20;11.90;;;;;;;0.35;59.61;98174.11;109652;1289;22368;-92
2023/04/06 07:56:47;;;;;;;12.70;11.40;;;;;;;0.42;59.31;98178.24;109732;1289;22244;-91
2023/04/06 07:59:15;;;;;;;13.60;12.20;;;;;;;0.48;58.98;98181.35;109787;1289;22239;-92
2023/04/06 08:01:44;;;;;;;13.70;11.60;;;;;;;0.47;58.59;98184.10;109804;1289;22959;-93
2023/04/06 08:04:12;;;;;;;12.40;10.60;;;;;;;0.53;59.31;98183.39;109784;1289;22206;-91
2023/04/06 08:06:41;;;;;;;15.00;13.50;;;;;;;0.64;58.71;98182.02;109823;1289;22339;-92
2023/04/06 08:09:09;;;;;;;12.70;11.40;;;;;;;0.64;58.26;98184.41;109712;1289;22212;-91
2023/04/06 08:11:37;;;;;;;12.20;11.00;;;;;;;0.61;57.97;98181.73;109689;1289;22223;-91
2023/04/06 08:14:05;;;;;;;12.20;11.00;;;;;;;0.60;58.14;98187.33;109598;1289;22248;-92
2023/04/06 08:16:34;;;;;;;15.00;13.60;;;;;;;0.60;58.25;98180.97;109705;1289;22074;-93
2023/04/06 08:19:04;;;;;;;12.50;11.30;;;;;;;0.65;58.25;98179.39;109846;1289;22212;-90
2023/04/06 08:21:37;;;;;;;14.90;13.40;;;;;;;0.70;57.95;98180.89;109794;1289;22155;-91
2023/04/06 08:24:09;;;;;;;15.50;13.90;;;;;;;0.75;58.44;98177.19;109651;1289;22086;-93
2023/04/06 08:26:37;;;;;;;14.10;12.80;;;;;;;0.80;58.20;98177.11;109785;1289;22996;-91
2023/04/06 08:29:08;;;;;;;14.20;12.70;;;;;;;0.85;57.82;98181.77;109779;1289;22211;-89
2023/04/06 08:31:37;;;;;;;14.50;13.00;;;;;;;0.65;57.72;98150.39;109762;1289;22193;-92
2023/04/06 08:34:05;;;;;;;15.20;13.70;;;;;;;0.77;57.84;98175.85;109812;1289;22129;-91
2023/04/06 08:36:36;;;;;;;14.60;13.10;;;;;;;0.81;58.30;98172.60;109710;1289;22877;-91
2023/04/06 08:39:05;;;;;;;14.70;13.40;;;;;;;0.91;58.62;98164.36;109642;1289;22278;-92
2023/04/06 08:41:34;;;;;;;15.60;14.10;;;;;;;0.99;57.88;98166.44;109763;1283;22122;-91
2023/04/06 08:44:04;;;;;;;15.30;13.80;;;;;;;1.01;58.22;98162.52;109774;1289;22153;-93
2023/04/06 08:46:32;;;;;;;14.80;13.00;;;;;;;1.04;56.81;98166.99;109771;1289;22217;-91
2023/04/06 08:49:02;;;;;;;13.30;12.10;;;;;;;0.84;56.42;98163.05;109783;1289;22160;-92
2023/04/06 08:51:30;;;;;;;16.40;14.70;;;;;;;0.73;57.26;98162.61;109796;1289;22256;-91
2023/04/06 08:53:59;;;;;;;14.20;12.80;;;;;;;0.83;57.41;98155.76;109738;1289;22244;-92
2023/04/06 08:56:28;;;;;;;14.00;12.60;;;;;;;0.99;57.33;98147.57;109611;1289;22186;-89
2023/04/06 08:58:57;;;;;;;16.20;13.40;;;;;;;1.14;57.13;98140.54;109768;1289;22928;-91
2023/04/06 09:01:27;;;;;;;15.40;13.80;;;;;;;1.29;57.37;98137.52;109669;1289;22299;-92
2023/04/06 09:03:59;;;;;;;16.60;14.10;;;;;;;1.49;57.34;98134.90;109612;1289;22406;-93
2023/04/06 09:06:28;;;;;;;15.70;14.10;;;;;;;1.65;56.51;98133.04;109745;1289;22217;-93
2023/04/06 09:08:57;;;;;;;14.90;13.40;;;;;;;1.56;55.60;98135.20;109630;1289;22199;-90
2023/04/06 09:11:26;;;;;;;13.40;12.00;;;;;;;1.38;55.67;98140.46;109783;1289;22224;-92
2023/04/06 09:13:55;;;;;;;16.20;13.10;;;;;;;1.26;55.83;98137.02;109778;1289;22953;-90
2023/04/06 09:16:23;;;;;;;13.40;12.00;;;;;;;1.20;55.97;98134.75;109608;1289;22108;-92
2023/04/06 09:18:51;;;;;;;14.90;13.40;;;;;;;1.21;56.25;98131.39;109628;1289;22943;-91
2023/04/06 09:21:19;;;;;;;14.70;13.10;;;;;;;1.34;56.52;98123.70;109751;1289;22166;-91
2023/04/06 09:24:00;;;;;;;14.00;12.70;;;;;;;1.49;55.65;98127.46;109743;1289;22241;-89
2023/04/06 09:26:29;;;;;;;15.80;13.80;;;;;;;1.40;55.10;98125.96;109628;1289;22204;-92
2023/04/06 09:28:59;;;;;;;15.10;13.60;;;;;;;1.41;55.42;98123.79;109671;1289;22280;-90
2023/04/06 09:31:29;;;;;;;14.20;12.70;;;;;;;1.39;54.81;98119.81;109616;1289;22174;-89
2023/04/06 09:33:58;;;;;;;14.80;13.00;;;;;;;1.38;54.65;98116.84;109585;1277;22402;-89
2023/04/06 09:36:34;;;;;;;13.30;12.00;;;;;;;1.45;55.13;98107.79;109726;1289;22398;-89
2023/04/06 09:39:04;;;;;;;13.80;12.50;;;;;;;1.59;54.51;98112.92;109730;1289;22320;-89
2023/04/06 09:41:34;;;;;;;13.00;11.80;;;;;;;1.56;54.19;98113.84;109733;1289;22201;-91
2023/04/06 09:44:10;;;;;;;13.30;12.00;;;;;;;1.55;54.09;98109.29;109689;1289;22306;-90
2023/04/06 09:46:40;;;;;;;13.50;12.20;;;;;;;1.57;53.87;98109.45;109822;1286;22146;-93
2023/04/06 09:49:33;;;;;;;13.80;12.40;;;;;;;1.69;54.32;98101.52;109667;1289;22209;-92
2023/04/06 09:52:06;;;;;;;14.70;13.40;;;;;;;1.85;53.82;98103.41;109680;1289;22215;-94
2023/04/06 09:54:51;;;;;;;14.80;13.30;;;;;;;1.89;53.59;98105.89;109651;1289;22831;-92
2023/04/06 09:57:31;;;;;;;14.60;13.20;;;;;;;1.81;53.54;98111.41;109635;1289;22112;-91
2023/04/06 10:00:20;;;;;;;18.40;15.00;;;;;;;1.68;53.54;98102.98;109741;1289;22223;-91
2023/04/06 10:03:03;;;;;;;15.90;14.40;;;;;;;1.62;54.19;98103.19;109737;1289;22257;-92
2023/04/06 10:06:04;;;;;;;16.10;13.60;;;;;;;1.60;54.11;98102.13;109630;1289;22210;-92
2023/04/06 10:08:34;;;;;;;15.60;14.10;;;;;;;1.70;54.04;98100.60;109772;1289;22216;-91
2023/04/06 10:11:03;;;;;;;16.20;14.70;;;;;;;1.74;54.25;98099.48;109766;1289;22931;-91
2023/04/06 10:13:33;;;;;;;19.80;16.20;;;;;;;1.72;54.09;98099.30;109740;1289;22499;-90
2023/04/06 10:16:02;;;;;;;16.90;15.20;;;;;;;1.66;54.46;98102.64;109656;1289;22144;-90
2023/04/06 10:18:30;;;;;;;16.60;15.00;;;;;;;1.64;54.29;98100.89;109618;1289;22156;-91
2023/04/06 10:21:20;;;;;;;16.20;14.30;;;;;;;1.51;54.13;98093.64;109556;1289;23083;-88
2023/04/06 10:23:52;;;;;;;18.20;16.40;;;;;;;1.46;54.69;98094.39;109509;1289;22267;-90
2023/04/06 10:26:21;;;;;;;21.60;17.70;;;;;;;1.46;55.00;98087.77;109507;1289;22235;-90
2023/04/06 10:28:50;;;;;;;19.20;17.30;;;;;;;1.53;55.32;98086.94;109696;1289;22247;-91
2023/04/06 10:31:26;;;;;;;21.50;18.60;;;;;;;1.58;55.66;98085.96;109697;1289;22296;-87
2023/04/06 10:33:56;;;;;;;19.90;17.90;;;;;;;1.72;55.65;98082.83;109508;1289;22273;-85
2023/04/06 10:36:31;;;;;;;18.40;16.60;;;;;;;1.83;54.96;98086.54;109499;1289;22273;-83
2023/04/06 10:39:03;;;;;;;20.10;16.10;;;;;;;1.81;54.85;98080.60;109664;1289;22898;-84
2023/04/06 10:41:47;;;;;;;17.30;15.70;;;;;;;1.85;55.05;98074.36;109529;1289;22927;-83
2023/04/06 10:44:23;;;;;;;15.50;14.00;;;;;;;1.92;55.37;98078.20;109677;1289;22370;-83
2023/04/06 10:46:55;;;;;;;15.10;13.70;;;;;;;2.03;54.64;98073.61;109666;1289;22228;-83
2023/04/06 10:49:32;;;;;;;15.00;13.40;;;;;;;2.09;54.37;98074.78;109513;1289;22248;-83
2023/04/06 10:52:03;;;;;;;15.20;13.60;;;;;;;2.12;54.45;98070.48;109683;1289;22259;-84
2023/04/06 10:54:32;;;;;;;15.40;13.00;;;;;;;2.16;54.18;98065.27;109661;1289;22272;-84
2023/04/06 10:57:05;;;;;;;17.80;14.50;;;;;;;2.21;53.87;98066.81;109512;1289;22116;-84
2023/04/06 10:59:55;;;;;;;14.30;12.80;;;;;;;2.17;53.35;98068.42;109722;1289;23069;-83
2023/04/06 11:02:24;;;;;;;13.50;11.70;;;;;;;1.98;53.73;98072.73;109673;1289;22097;-83
2023/04/06 11:04:57;;;;;;;13.80;12.40;;;;;;;1.98;54.07;98065.59;109671;1289;22864;-83
2023/04/06 11:07:29;;;;;;;14.40;12.90;;;;;;;2.07;54.18;98063.48;109677;1289;22184;-83
2023/04/06 11:10:01;;;;;;;13.00;11.70;;;;;;;2.13;54.00;98062.88;109669;1289;22207;-83
2023/04/06 11:12:42;;;;;;;13.20;11.90;;;;;;;2.06;54.17;98068.35;109665;1289;22331;-82
2023/04/06 11:15:10;;;;;;;14.60;13.00;;;;;;;1.95;54.74;98065.82;109636;1289;22232;-82
2023/04/06 11:17:57;;;;;;;14.00;11.30;;;;;;;1.94;54.75;98065.15;109712;1289;22195;-90
2023/04/06 11:20:25;;;;;;;15.70;12.30;;;;;;;1.85;54.98;98062.81;109797;1289;22199;-92
2023/04/06 11:22:58;;;;;;;13.70;11.50;;;;;;;1.81;55.28;98057.02;109699;1289;22321;-92
2023/04/06 11:25:50;;;;;;;15.20;13.70;;;;;;;1.85;55.65;98054.27;109703;1269;22776;-87
2023/04/06 11:28:19;;;;;;;13.50;12.20;;;;;;;1.87;55.73;98057.58;109643;1289;22284;-89
2023/04/06 11:30:48;;;;;;;13.20;11.50;;;;;;;1.84;56.08;98057.85;109754;1290;22258;-90